sensor_id;sensor_type;location;lat;lon;timestamp;P1;durP1;ratioP1;P2;durP2;ratioP2
8088;SDS011;57635;49.194;12.104;2023-06-19T00:02:17;9.80;;;9.00;;
8088;SDS011;57635;49.194;12.104;2023-06-19T00:04:45;10.30;;;9.47;;
8088;SDS011;57635;49.194;12.104;2023-06-19T00:07:12;11.37;;;10.47;;
8088;SDS011;57635;49.194;12.104;2023-06-19T00:09:40;11.20;;;10.37;;
8088;SDS011;57635;49.194;12.104;2023-06-19T00:12:09;10.23;;;9.47;;
8088;SDS011;57635;49.194;12.104;2023-06-19T00:14:37;10.20;;;9.40;;
8088;SDS011;57635;49.194;12.104;2023-06-19T00:17:05;10.83;;;10.03;;
8088;SDS011;57635;49.194;12.104;2023-06-19T00:19:33;11.37;;;10.37;;
8088;SDS011;57635;49.194;12.104;2023-06-19T00:22:02;11.10;;;10.10;;
8088;SDS011;57635;49.194;12.104;2023-06-19T00:24:30;11.97;;;11.07;;
8088;SDS011;57635;49.194;12.104;2023-06-19T00:26:58;9.73;;;9.13;;
8088;SDS011;57635;49.194;12.104;2023-06-19T00:29:30;10.73;;;9.93;;
8088;SDS011;57635;49.194;12.104;2023-06-19T00:31:58;10.37;;;9.53;;
8088;SDS011;57635;49.194;12.104;2023-06-19T00:34:28;10.30;;;9.50;;
8088;SDS011;57635;49.194;12.104;2023-06-19T00:36:56;11.57;;;10.67;;
8088;SDS011;57635;49.194;12.104;2023-06-19T00:39:25;10.50;;;9.77;;
8088;SDS011;57635;49.194;12.104;2023-06-19T00:41:53;10.17;;;9.47;;
8088;SDS011;57635;49.194;12.104;2023-06-19T00:44:21;11.07;;;10.27;;
8088;SDS011;57635;49.194;12.104;2023-06-19T00:46:51;12.33;;;11.40;;
8088;SDS011;57635;49.194;12.104;2023-06-19T00:49:26;10.80;;;10.00;;
8088;SDS011;57635;49.194;12.104;2023-06-19T00:51:55;10.93;;;10.13;;
8088;SDS011;57635;49.194;12.104;2023-06-19T00:54:22;12.10;;;11.00;;
8088;SDS011;57635;49.194;12.104;2023-06-19T00:56:50;11.47;;;10.57;;
8088;SDS011;57635;49.194;12.104;2023-06-19T00:59:18;10.53;;;9.73;;
8088;SDS011;57635;49.194;12.104;2023-06-19T01:01:46;11.17;;;10.40;;
8088;SDS011;57635;49.194;12.104;2023-06-19T01:04:15;11.30;;;10.43;;
8088;SDS011;57635;49.194;12.104;2023-06-19T01:06:45;12.27;;;11.27;;
8088;SDS011;57635;49.194;12.104;2023-06-19T01:09:16;11.57;;;10.77;;
8088;SDS011;57635;49.194;12.104;2023-06-19T01:11:45;12.77;;;11.77;;
8088;SDS011;57635;49.194;12.104;2023-06-19T01:14:18;12.17;;;11.17;;
8088;SDS011;57635;49.194;12.104;2023-06-19T01:16:46;12.17;;;11.23;;
8088;SDS011;57635;49.194;12.104;2023-06-19T01:19:17;12.43;;;11.40;;
8088;SDS011;57635;49.194;12.104;2023-06-19T01:21:47;13.00;;;11.90;;
8088;SDS011;57635;49.194;12.104;2023-06-19T01:24:17;11.50;;;10.57;;
8088;SDS011;57635;49.194;12.104;2023-06-19T01:26:45;11.67;;;10.67;;
8088;SDS011;57635;49.194;12.104;2023-06-19T01:29:13;12.47;;;11.57;;
8088;SDS011;57635;49.194;12.104;2023-06-19T01:31:43;12.47;;;11.53;;
8088;SDS011;57635;49.194;12.104;2023-06-19T01:34:13;12.67;;;11.67;;
8088;SDS011;57635;49.194;12.104;2023-06-19T01:36:41;13.17;;;12.07;;
8088;SDS011;57635;49.194;12.104;2023-06-19T01:39:09;11.80;;;10.90;;
8088;SDS011;57635;49.194;12.104;2023-06-19T01:41:39;11.03;;;10.20;;
8088;SDS011;57635;49.194;12.104;2023-06-19T01:44:07;11.93;;;11.03;;
8088;SDS011;57635;49.194;12.104;2023-06-19T01:46:35;11.80;;;10.80;;
8088;SDS011;57635;49.194;12.104;2023-06-19T01:49:05;12.10;;;11.10;;
8088;SDS011;57635;49.194;12.104;2023-06-19T01:51:34;12.73;;;11.53;;
8088;SDS011;57635;49.194;12.104;2023-06-19T01:54:02;12.53;;;11.63;;
8088;SDS011;57635;49.194;12.104;2023-06-19T01:56:30;12.63;;;11.63;;
8088;SDS011;57635;49.194;12.104;2023-06-19T01:58:59;13.90;;;12.70;;
8088;SDS011;57635;49.194;12.104;2023-06-19T02:01:27;11.50;;;10.70;;
8088;SDS011;57635;49.194;12.104;2023-06-19T02:03:54;12.17;;;11.17;;
8088;SDS011;57635;49.194;12.104;2023-06-19T02:06:22;12.97;;;11.87;;
8088;SDS011;57635;49.194;12.104;2023-06-19T02:08:50;12.97;;;12.07;;
8088;SDS011;57635;49.194;12.104;2023-06-19T02:11:17;12.47;;;11.37;;
8088;SDS011;57635;49.194;12.104;2023-06-19T02:13:45;12.57;;;11.67;;
8088;SDS011;57635;49.194;12.104;2023-06-19T02:16:14;12.43;;;11.43;;
8088;SDS011;57635;49.194;12.104;2023-06-19T02:18:41;12.90;;;11.90;;
8088;SDS011;57635;49.194;12.104;2023-06-19T02:21:09;12.13;;;11.33;;
8088;SDS011;57635;49.194;12.104;2023-06-19T02:23:36;12.87;;;11.90;;
8088;SDS011;57635;49.194;12.104;2023-06-19T02:26:04;12.30;;;11.40;;
8088;SDS011;57635;49.194;12.104;2023-06-19T02:28:32;12.97;;;12.00;;
8088;SDS011;57635;49.194;12.104;2023-06-19T02:30:59;12.87;;;11.73;;
8088;SDS011;57635;49.194;12.104;2023-06-19T02:33:28;12.20;;;11.20;;
8088;SDS011;57635;49.194;12.104;2023-06-19T02:35:56;12.70;;;11.80;;
8088;SDS011;57635;49.194;12.104;2023-06-19T02:38:25;13.33;;;11.93;;
8088;SDS011;57635;49.194;12.104;2023-06-19T02:40:53;12.30;;;11.40;;
8088;SDS011;57635;49.194;12.104;2023-06-19T02:43:20;13.20;;;12.20;;
8088;SDS011;57635;49.194;12.104;2023-06-19T02:45:48;12.73;;;11.73;;
8088;SDS011;57635;49.194;12.104;2023-06-19T02:48:15;12.60;;;11.67;;
8088;SDS011;57635;49.194;12.104;2023-06-19T02:50:45;12.07;;;11.10;;
8088;SDS011;57635;49.194;12.104;2023-06-19T02:53:13;12.97;;;12.03;;
8088;SDS011;57635;49.194;12.104;2023-06-19T02:55:42;12.70;;;11.80;;
8088;SDS011;57635;49.194;12.104;2023-06-19T02:58:10;11.97;;;11.13;;
8088;SDS011;57635;49.194;12.104;2023-06-19T03:00:37;12.30;;;11.40;;
8088;SDS011;57635;49.194;12.104;2023-06-19T03:03:05;13.40;;;12.30;;
8088;SDS011;57635;49.194;12.104;2023-06-19T03:05:33;13.77;;;12.67;;
8088;SDS011;57635;49.194;12.104;2023-06-19T03:08:02;13.67;;;12.67;;
8088;SDS011;57635;49.194;12.104;2023-06-19T03:10:30;14.07;;;12.90;;
8088;SDS011;57635;49.194;12.104;2023-06-19T03:12:58;14.97;;;13.70;;
8088;SDS011;57635;49.194;12.104;2023-06-19T03:15:25;12.77;;;11.80;;
8088;SDS011;57635;49.194;12.104;2023-06-19T03:17:53;12.53;;;11.60;;
8088;SDS011;57635;49.194;12.104;2023-06-19T03:20:21;12.33;;;11.40;;
8088;SDS011;57635;49.194;12.104;2023-06-19T03:22:49;14.10;;;12.80;;
8088;SDS011;57635;49.194;12.104;2023-06-19T03:25:19;13.00;;;12.00;;
8088;SDS011;57635;49.194;12.104;2023-06-19T03:27:47;13.37;;;12.37;;
8088;SDS011;57635;49.194;12.104;2023-06-19T03:30:14;15.17;;;12.37;;
8088;SDS011;57635;49.194;12.104;2023-06-19T03:32:44;12.90;;;12.00;;
8088;SDS011;57635;49.194;12.104;2023-06-19T03:35:12;12.57;;;11.63;;
8088;SDS011;57635;49.194;12.104;2023-06-19T03:37:41;12.80;;;11.80;;
8088;SDS011;57635;49.194;12.104;2023-06-19T03:40:08;14.03;;;12.67;;
8088;SDS011;57635;49.194;12.104;2023-06-19T03:42:41;14.33;;;13.03;;
8088;SDS011;57635;49.194;12.104;2023-06-19T03:45:09;14.07;;;12.97;;
8088;SDS011;57635;49.194;12.104;2023-06-19T03:47:37;14.93;;;13.63;;
8088;SDS011;57635;49.194;12.104;2023-06-19T03:50:05;13.43;;;12.43;;
8088;SDS011;57635;49.194;12.104;2023-06-19T03:52:55;14.03;;;12.83;;
8088;SDS011;57635;49.194;12.104;2023-06-19T03:55:23;13.10;;;12.10;;
8088;SDS011;57635;49.194;12.104;2023-06-19T03:57:52;13.73;;;12.53;;
8088;SDS011;57635;49.194;12.104;2023-06-19T04:00:20;13.77;;;12.77;;
8088;SDS011;57635;49.194;12.104;2023-06-19T04:02:49;13.43;;;12.43;;
8088;SDS011;57635;49.194;12.104;2023-06-19T04:05:16;13.70;;;12.63;;
8088;SDS011;57635;49.194;12.104;2023-06-19T04:07:45;13.70;;;12.47;;
8088;SDS011;57635;49.194;12.104;2023-06-19T04:10:13;13.80;;;12.70;;
8088;SDS011;57635;49.194;12.104;2023-06-19T04:12:41;13.43;;;12.43;;
8088;SDS011;57635;49.194;12.104;2023-06-19T04:15:10;14.13;;;13.07;;
8088;SDS011;57635;49.194;12.104;2023-06-19T04:17:38;13.17;;;12.27;;
8088;SDS011;57635;49.194;12.104;2023-06-19T04:20:06;13.40;;;12.37;;
8088;SDS011;57635;49.194;12.104;2023-06-19T04:22:38;12.77;;;11.47;;
8088;SDS011;57635;49.194;12.104;2023-06-19T04:25:07;14.37;;;13.03;;
8088;SDS011;57635;49.194;12.104;2023-06-19T04:27:36;12.60;;;11.60;;
8088;SDS011;57635;49.194;12.104;2023-06-19T04:30:04;14.03;;;12.83;;
8088;SDS011;57635;49.194;12.104;2023-06-19T04:32:34;13.37;;;12.37;;
8088;SDS011;57635;49.194;12.104;2023-06-19T04:35:03;13.70;;;12.60;;
8088;SDS011;57635;49.194;12.104;2023-06-19T04:37:31;14.60;;;13.43;;
8088;SDS011;57635;49.194;12.104;2023-06-19T04:39:58;13.40;;;12.20;;
8088;SDS011;57635;49.194;12.104;2023-06-19T04:42:26;14.93;;;12.97;;
8088;SDS011;57635;49.194;12.104;2023-06-19T04:44:54;15.40;;;14.17;;
8088;SDS011;57635;49.194;12.104;2023-06-19T04:47:22;13.33;;;12.23;;
8088;SDS011;57635;49.194;12.104;2023-06-19T04:50:03;13.90;;;12.70;;
8088;SDS011;57635;49.194;12.104;2023-06-19T04:52:31;13.60;;;12.60;;
8088;SDS011;57635;49.194;12.104;2023-06-19T04:54:59;13.23;;;12.10;;
8088;SDS011;57635;49.194;12.104;2023-06-19T04:57:27;12.03;;;11.23;;
8088;SDS011;57635;49.194;12.104;2023-06-19T04:59:54;11.17;;;10.27;;
8088;SDS011;57635;49.194;12.104;2023-06-19T05:02:22;9.67;;;8.97;;
8088;SDS011;57635;49.194;12.104;2023-06-19T05:04:50;10.03;;;9.23;;
8088;SDS011;57635;49.194;12.104;2023-06-19T05:07:19;11.07;;;10.17;;
8088;SDS011;57635;49.194;12.104;2023-06-19T05:09:47;11.27;;;10.37;;
8088;SDS011;57635;49.194;12.104;2023-06-19T05:12:14;11.47;;;10.50;;
8088;SDS011;57635;49.194;12.104;2023-06-19T05:14:42;12.53;;;10.53;;
8088;SDS011;57635;49.194;12.104;2023-06-19T05:17:09;14.13;;;12.73;;
8088;SDS011;57635;49.194;12.104;2023-06-19T05:19:37;12.67;;;11.17;;
8088;SDS011;57635;49.194;12.104;2023-06-19T05:22:05;12.40;;;11.30;;
8088;SDS011;57635;49.194;12.104;2023-06-19T05:24:34;12.80;;;11.70;;
8088;SDS011;57635;49.194;12.104;2023-06-19T05:27:02;10.93;;;10.20;;
8088;SDS011;57635;49.194;12.104;2023-06-19T05:29:29;11.43;;;10.63;;
8088;SDS011;57635;49.194;12.104;2023-06-19T05:31:57;12.13;;;11.20;;
8088;SDS011;57635;49.194;12.104;2023-06-19T05:34:25;12.60;;;11.70;;
8088;SDS011;57635;49.194;12.104;2023-06-19T05:36:53;11.77;;;10.97;;
8088;SDS011;57635;49.194;12.104;2023-06-19T05:39:20;12.80;;;11.50;;
8088;SDS011;57635;49.194;12.104;2023-06-19T05:41:49;11.63;;;10.63;;
8088;SDS011;57635;49.194;12.104;2023-06-19T05:44:17;11.27;;;10.53;;
8088;SDS011;57635;49.194;12.104;2023-06-19T05:46:45;12.00;;;10.47;;
8088;SDS011;57635;49.194;12.104;2023-06-19T05:49:12;11.83;;;10.93;;
8088;SDS011;57635;49.194;12.104;2023-06-19T05:51:40;10.60;;;9.90;;
8088;SDS011;57635;49.194;12.104;2023-06-19T05:54:08;11.73;;;10.83;;
8088;SDS011;57635;49.194;12.104;2023-06-19T05:56:36;11.60;;;10.80;;
8088;SDS011;57635;49.194;12.104;2023-06-19T05:59:04;11.27;;;10.47;;
8088;SDS011;57635;49.194;12.104;2023-06-19T06:01:32;11.30;;;10.40;;
8088;SDS011;57635;49.194;12.104;2023-06-19T06:04:00;11.13;;;10.33;;
8088;SDS011;57635;49.194;12.104;2023-06-19T06:06:28;12.03;;;11.03;;
8088;SDS011;57635;49.194;12.104;2023-06-19T06:08:55;15.57;;;14.17;;
8088;SDS011;57635;49.194;12.104;2023-06-19T06:11:23;11.80;;;10.80;;
8088;SDS011;57635;49.194;12.104;2023-06-19T06:13:50;11.20;;;10.27;;
8088;SDS011;57635;49.194;12.104;2023-06-19T06:16:19;10.93;;;10.13;;
8088;SDS011;57635;49.194;12.104;2023-06-19T06:18:47;10.97;;;9.97;;
8088;SDS011;57635;49.194;12.104;2023-06-19T06:21:15;11.07;;;10.17;;
8088;SDS011;57635;49.194;12.104;2023-06-19T06:23:42;12.37;;;11.03;;
8088;SDS011;57635;49.194;12.104;2023-06-19T06:26:11;12.60;;;11.30;;
8088;SDS011;57635;49.194;12.104;2023-06-19T06:28:38;11.03;;;10.30;;
8088;SDS011;57635;49.194;12.104;2023-06-19T06:31:06;11.40;;;10.40;;
8088;SDS011;57635;49.194;12.104;2023-06-19T06:33:35;10.87;;;10.03;;
8088;SDS011;57635;49.194;12.104;2023-06-19T06:36:03;11.40;;;10.43;;
8088;SDS011;57635;49.194;12.104;2023-06-19T06:38:34;10.63;;;9.93;;
8088;SDS011;57635;49.194;12.104;2023-06-19T06:41:01;11.47;;;10.50;;
8088;SDS011;57635;49.194;12.104;2023-06-19T06:43:29;11.93;;;11.03;;
8088;SDS011;57635;49.194;12.104;2023-06-19T06:45:56;11.00;;;10.03;;
8088;SDS011;57635;49.194;12.104;2023-06-19T06:48:24;10.40;;;9.57;;
8088;SDS011;57635;49.194;12.104;2023-06-19T06:50:53;9.53;;;8.73;;
8088;SDS011;57635;49.194;12.104;2023-06-19T06:53:27;10.30;;;9.50;;
8088;SDS011;57635;49.194;12.104;2023-06-19T06:55:55;9.30;;;8.60;;
8088;SDS011;57635;49.194;12.104;2023-06-19T06:58:22;10.10;;;9.10;;
8088;SDS011;57635;49.194;12.104;2023-06-19T07:00:50;9.93;;;9.13;;
8088;SDS011;57635;49.194;12.104;2023-06-19T07:03:18;9.50;;;8.60;;
8088;SDS011;57635;49.194;12.104;2023-06-19T07:05:46;10.03;;;9.33;;
8088;SDS011;57635;49.194;12.104;2023-06-19T07:08:15;9.37;;;8.47;;
8088;SDS011;57635;49.194;12.104;2023-06-19T07:10:43;9.77;;;8.77;;
8088;SDS011;57635;49.194;12.104;2023-06-19T07:13:11;11.20;;;10.03;;
8088;SDS011;57635;49.194;12.104;2023-06-19T07:15:38;9.50;;;8.60;;
8088;SDS011;57635;49.194;12.104;2023-06-19T07:18:06;10.03;;;9.13;;
8088;SDS011;57635;49.194;12.104;2023-06-19T07:20:34;9.93;;;9.13;;
8088;SDS011;57635;49.194;12.104;2023-06-19T07:23:02;9.83;;;9.10;;
8088;SDS011;57635;49.194;12.104;2023-06-19T07:25:31;10.07;;;9.23;;
8088;SDS011;57635;49.194;12.104;2023-06-19T07:28:00;8.80;;;8.00;;
8088;SDS011;57635;49.194;12.104;2023-06-19T07:30:30;8.60;;;7.90;;
8088;SDS011;57635;49.194;12.104;2023-06-19T07:32:58;10.03;;;9.30;;
8088;SDS011;57635;49.194;12.104;2023-06-19T07:35:25;8.70;;;7.87;;
8088;SDS011;57635;49.194;12.104;2023-06-19T07:37:53;9.33;;;8.43;;
8088;SDS011;57635;49.194;12.104;2023-06-19T07:40:21;10.20;;;8.60;;
8088;SDS011;57635;49.194;12.104;2023-06-19T07:42:50;9.90;;;9.10;;
8088;SDS011;57635;49.194;12.104;2023-06-19T07:45:18;9.00;;;8.30;;
8088;SDS011;57635;49.194;12.104;2023-06-19T07:47:53;9.37;;;8.67;;
8088;SDS011;57635;49.194;12.104;2023-06-19T07:50:21;8.70;;;8.07;;
8088;SDS011;57635;49.194;12.104;2023-06-19T07:52:52;8.47;;;7.83;;
8088;SDS011;57635;49.194;12.104;2023-06-19T07:55:20;9.00;;;8.20;;
8088;SDS011;57635;49.194;12.104;2023-06-19T07:57:47;9.07;;;8.37;;
8088;SDS011;57635;49.194;12.104;2023-06-19T08:00:17;9.30;;;8.43;;
8088;SDS011;57635;49.194;12.104;2023-06-19T08:02:44;8.53;;;7.93;;
8088;SDS011;57635;49.194;12.104;2023-06-19T08:05:13;8.93;;;8.30;;
8088;SDS011;57635;49.194;12.104;2023-06-19T08:07:41;8.77;;;8.07;;
8088;SDS011;57635;49.194;12.104;2023-06-19T08:10:09;13.43;;;8.83;;
8088;SDS011;57635;49.194;12.104;2023-06-19T08:12:40;8.93;;;8.33;;
8088;SDS011;57635;49.194;12.104;2023-06-19T08:15:08;8.50;;;7.90;;
8088;SDS011;57635;49.194;12.104;2023-06-19T08:17:37;7.90;;;7.33;;
8088;SDS011;57635;49.194;12.104;2023-06-19T08:20:06;8.87;;;8.17;;
8088;SDS011;57635;49.194;12.104;2023-06-19T08:22:34;8.83;;;8.03;;
8088;SDS011;57635;49.194;12.104;2023-06-19T08:25:02;8.87;;;8.27;;
8088;SDS011;57635;49.194;12.104;2023-06-19T08:27:30;11.97;;;10.97;;
8088;SDS011;57635;49.194;12.104;2023-06-19T08:29:58;8.37;;;7.77;;
8088;SDS011;57635;49.194;12.104;2023-06-19T08:32:25;8.70;;;7.90;;
8088;SDS011;57635;49.194;12.104;2023-06-19T08:34:55;8.03;;;7.53;;
8088;SDS011;57635;49.194;12.104;2023-06-19T08:37:22;8.10;;;7.60;;
8088;SDS011;57635;49.194;12.104;2023-06-19T08:39:50;7.97;;;7.37;;
8088;SDS011;57635;49.194;12.104;2023-06-19T08:42:17;10.27;;;9.53;;
8088;SDS011;57635;49.194;12.104;2023-06-19T08:44:45;8.87;;;8.27;;
8088;SDS011;57635;49.194;12.104;2023-06-19T08:47:13;7.63;;;7.03;;
8088;SDS011;57635;49.194;12.104;2023-06-19T08:49:40;8.47;;;7.87;;
8088;SDS011;57635;49.194;12.104;2023-06-19T08:52:09;15.97;;;8.50;;
8088;SDS011;57635;49.194;12.104;2023-06-19T08:54:37;10.30;;;7.70;;
8088;SDS011;57635;49.194;12.104;2023-06-19T08:57:10;8.53;;;7.83;;
8088;SDS011;57635;49.194;12.104;2023-06-19T08:59:39;12.63;;;7.93;;
8088;SDS011;57635;49.194;12.104;2023-06-19T09:02:07;8.60;;;7.90;;
8088;SDS011;57635;49.194;12.104;2023-06-19T09:04:34;12.53;;;8.97;;
8088;SDS011;57635;49.194;12.104;2023-06-19T09:07:02;12.07;;;8.00;;
8088;SDS011;57635;49.194;12.104;2023-06-19T09:09:33;8.20;;;7.30;;
8088;SDS011;57635;49.194;12.104;2023-06-19T09:12:01;8.07;;;7.30;;
8088;SDS011;57635;49.194;12.104;2023-06-19T09:14:33;11.00;;;6.93;;
8088;SDS011;57635;49.194;12.104;2023-06-19T09:17:02;10.57;;;7.10;;
8088;SDS011;57635;49.194;12.104;2023-06-19T09:19:29;6.80;;;6.30;;
8088;SDS011;57635;49.194;12.104;2023-06-19T09:22:00;8.20;;;7.50;;
8088;SDS011;57635;49.194;12.104;2023-06-19T09:24:34;7.37;;;6.80;;
8088;SDS011;57635;49.194;12.104;2023-06-19T09:27:06;7.07;;;6.57;;
8088;SDS011;57635;49.194;12.104;2023-06-19T09:29:36;7.40;;;6.80;;
8088;SDS011;57635;49.194;12.104;2023-06-19T09:32:14;8.13;;;7.40;;
8088;SDS011;57635;49.194;12.104;2023-06-19T09:34:42;6.83;;;6.33;;
8088;SDS011;57635;49.194;12.104;2023-06-19T09:37:10;8.17;;;7.57;;
8088;SDS011;57635;49.194;12.104;2023-06-19T09:39:39;7.53;;;6.93;;
8088;SDS011;57635;49.194;12.104;2023-06-19T09:42:08;6.93;;;6.37;;
8088;SDS011;57635;49.194;12.104;2023-06-19T09:44:39;6.40;;;6.00;;
8088;SDS011;57635;49.194;12.104;2023-06-19T09:47:14;6.53;;;6.13;;
8088;SDS011;57635;49.194;12.104;2023-06-19T09:49:47;8.00;;;7.40;;
8088;SDS011;57635;49.194;12.104;2023-06-19T09:52:16;7.13;;;6.47;;
8088;SDS011;57635;49.194;12.104;2023-06-19T09:54:46;6.63;;;6.07;;
8088;SDS011;57635;49.194;12.104;2023-06-19T09:57:15;7.03;;;6.53;;
8088;SDS011;57635;49.194;12.104;2023-06-19T09:59:45;7.17;;;6.57;;
8088;SDS011;57635;49.194;12.104;2023-06-19T10:02:14;7.73;;;7.23;;
8088;SDS011;57635;49.194;12.104;2023-06-19T10:04:44;6.97;;;6.53;;
8088;SDS011;57635;49.194;12.104;2023-06-19T10:07:16;7.00;;;6.40;;
8088;SDS011;57635;49.194;12.104;2023-06-19T10:09:58;7.00;;;6.50;;
8088;SDS011;57635;49.194;12.104;2023-06-19T10:12:39;7.43;;;6.83;;
8088;SDS011;57635;49.194;12.104;2023-06-19T10:15:08;7.50;;;6.90;;
8088;SDS011;57635;49.194;12.104;2023-06-19T10:17:37;7.23;;;6.57;;
8088;SDS011;57635;49.194;12.104;2023-06-19T10:20:05;8.40;;;7.67;;
8088;SDS011;57635;49.194;12.104;2023-06-19T10:22:49;7.60;;;6.90;;
8088;SDS011;57635;49.194;12.104;2023-06-19T10:25:23;7.37;;;6.57;;
8088;SDS011;57635;49.194;12.104;2023-06-19T10:27:51;8.27;;;7.60;;
8088;SDS011;57635;49.194;12.104;2023-06-19T10:30:20;7.77;;;7.23;;
8088;SDS011;57635;49.194;12.104;2023-06-19T10:32:48;7.90;;;7.10;;
8088;SDS011;57635;49.194;12.104;2023-06-19T10:35:17;7.90;;;7.30;;
8088;SDS011;57635;49.194;12.104;2023-06-19T10:37:47;7.50;;;6.90;;
8088;SDS011;57635;49.194;12.104;2023-06-19T10:40:15;7.60;;;6.93;;
8088;SDS011;57635;49.194;12.104;2023-06-19T10:42:44;7.43;;;6.83;;
8088;SDS011;57635;49.194;12.104;2023-06-19T10:45:13;6.77;;;6.27;;
8088;SDS011;57635;49.194;12.104;2023-06-19T10:47:43;7.40;;;6.80;;
8088;SDS011;57635;49.194;12.104;2023-06-19T10:50:11;11.23;;;10.13;;
8088;SDS011;57635;49.194;12.104;2023-06-19T10:52:40;7.10;;;6.63;;
8088;SDS011;57635;49.194;12.104;2023-06-19T10:55:10;8.00;;;7.10;;
8088;SDS011;57635;49.194;12.104;2023-06-19T10:57:40;6.80;;;6.30;;
8088;SDS011;57635;49.194;12.104;2023-06-19T11:00:22;6.90;;;6.20;;
8088;SDS011;57635;49.194;12.104;2023-06-19T11:02:51;6.57;;;6.00;;
8088;SDS011;57635;49.194;12.104;2023-06-19T11:05:19;6.87;;;6.40;;
8088;SDS011;57635;49.194;12.104;2023-06-19T11:07:51;6.23;;;5.83;;
8088;SDS011;57635;49.194;12.104;2023-06-19T11:10:20;5.80;;;5.40;;
8088;SDS011;57635;49.194;12.104;2023-06-19T11:12:52;6.53;;;6.23;;
8088;SDS011;57635;49.194;12.104;2023-06-19T11:15:27;8.30;;;7.70;;
8088;SDS011;57635;49.194;12.104;2023-06-19T11:17:55;10.50;;;9.57;;
8088;SDS011;57635;49.194;12.104;2023-06-19T11:20:23;6.57;;;5.97;;
8088;SDS011;57635;49.194;12.104;2023-06-19T11:22:54;5.70;;;5.40;;
8088;SDS011;57635;49.194;12.104;2023-06-19T11:25:23;5.97;;;5.50;;
8088;SDS011;57635;49.194;12.104;2023-06-19T11:27:52;6.13;;;5.63;;
8088;SDS011;57635;49.194;12.104;2023-06-19T11:30:29;5.40;;;5.10;;
8088;SDS011;57635;49.194;12.104;2023-06-19T11:32:57;5.47;;;4.97;;
8088;SDS011;57635;49.194;12.104;2023-06-19T11:35:32;6.23;;;5.73;;
8088;SDS011;57635;49.194;12.104;2023-06-19T11:38:02;6.03;;;5.53;;
8088;SDS011;57635;49.194;12.104;2023-06-19T11:40:38;5.23;;;4.80;;
8088;SDS011;57635;49.194;12.104;2023-06-19T11:43:08;5.90;;;5.60;;
8088;SDS011;57635;49.194;12.104;2023-06-19T11:45:44;5.70;;;5.40;;
8088;SDS011;57635;49.194;12.104;2023-06-19T11:48:13;6.03;;;5.53;;
8088;SDS011;57635;49.194;12.104;2023-06-19T11:50:41;5.97;;;5.50;;
8088;SDS011;57635;49.194;12.104;2023-06-19T11:53:08;6.23;;;5.60;;
8088;SDS011;57635;49.194;12.104;2023-06-19T11:55:36;6.03;;;5.60;;
8088;SDS011;57635;49.194;12.104;2023-06-19T11:58:05;5.80;;;5.50;;
8088;SDS011;57635;49.194;12.104;2023-06-19T12:00:35;5.83;;;5.43;;
8088;SDS011;57635;49.194;12.104;2023-06-19T12:03:03;6.30;;;5.80;;
8088;SDS011;57635;49.194;12.104;2023-06-19T12:05:31;5.53;;;5.17;;
8088;SDS011;57635;49.194;12.104;2023-06-19T12:07:59;5.20;;;4.90;;
8088;SDS011;57635;49.194;12.104;2023-06-19T12:10:28;6.60;;;6.03;;
8088;SDS011;57635;49.194;12.104;2023-06-19T12:12:56;5.37;;;5.07;;
8088;SDS011;57635;49.194;12.104;2023-06-19T12:15:24;5.67;;;5.27;;
8088;SDS011;57635;49.194;12.104;2023-06-19T12:17:53;5.30;;;5.00;;
8088;SDS011;57635;49.194;12.104;2023-06-19T12:20:24;6.50;;;6.03;;
8088;SDS011;57635;49.194;12.104;2023-06-19T12:22:52;6.77;;;6.30;;
8088;SDS011;57635;49.194;12.104;2023-06-19T12:25:20;7.13;;;6.67;;
8088;SDS011;57635;49.194;12.104;2023-06-19T12:27:47;6.13;;;5.83;;
8088;SDS011;57635;49.194;12.104;2023-06-19T12:30:20;4.93;;;4.63;;
8088;SDS011;57635;49.194;12.104;2023-06-19T12:32:48;5.00;;;4.57;;
8088;SDS011;57635;49.194;12.104;2023-06-19T12:35:18;4.40;;;4.20;;
8088;SDS011;57635;49.194;12.104;2023-06-19T12:37:45;4.30;;;4.10;;
8088;SDS011;57635;49.194;12.104;2023-06-19T12:40:14;3.93;;;3.73;;
8088;SDS011;57635;49.194;12.104;2023-06-19T12:42:43;4.35;;;4.15;;
8088;SDS011;57635;49.194;12.104;2023-06-19T12:45:11;4.20;;;4.00;;
8088;SDS011;57635;49.194;12.104;2023-06-19T12:47:38;3.00;;;2.90;;
8088;SDS011;57635;49.194;12.104;2023-06-19T12:50:07;3.58;;;3.33;;
8088;SDS011;57635;49.194;12.104;2023-06-19T12:52:37;4.03;;;3.83;;
8088;SDS011;57635;49.194;12.104;2023-06-19T12:55:05;3.78;;;3.58;;
8088;SDS011;57635;49.194;12.104;2023-06-19T12:57:33;3.75;;;3.55;;
8088;SDS011;57635;49.194;12.104;2023-06-19T13:00:01;3.97;;;3.78;;
8088;SDS011;57635;49.194;12.104;2023-06-19T13:02:31;4.72;;;4.38;;
8088;SDS011;57635;49.194;12.104;2023-06-19T13:04:59;3.53;;;3.30;;
8088;SDS011;57635;49.194;12.104;2023-06-19T13:07:27;4.57;;;3.20;;
8088;SDS011;57635;49.194;12.104;2023-06-19T13:09:56;2.92;;;2.72;;
8088;SDS011;57635;49.194;12.104;2023-06-19T13:12:23;3.40;;;3.20;;
8088;SDS011;57635;49.194;12.104;2023-06-19T13:14:51;3.33;;;2.67;;
8088;SDS011;57635;49.194;12.104;2023-06-19T13:17:19;3.72;;;3.42;;
8088;SDS011;57635;49.194;12.104;2023-06-19T13:19:46;3.47;;;3.30;;
8088;SDS011;57635;49.194;12.104;2023-06-19T13:22:14;3.03;;;2.92;;
8088;SDS011;57635;49.194;12.104;2023-06-19T13:24:41;3.30;;;3.20;;
8088;SDS011;57635;49.194;12.104;2023-06-19T13:27:10;3.80;;;3.50;;
8088;SDS011;57635;49.194;12.104;2023-06-19T13:29:38;3.88;;;3.67;;
8088;SDS011;57635;49.194;12.104;2023-06-19T13:32:06;3.30;;;3.10;;
8088;SDS011;57635;49.194;12.104;2023-06-19T13:34:34;3.78;;;3.47;;
8088;SDS011;57635;49.194;12.104;2023-06-19T13:37:02;4.15;;;3.95;;
8088;SDS011;57635;49.194;12.104;2023-06-19T13:39:30;3.47;;;3.38;;
8088;SDS011;57635;49.194;12.104;2023-06-19T13:41:58;3.97;;;3.78;;
8088;SDS011;57635;49.194;12.104;2023-06-19T13:44:28;3.28;;;3.08;;
8088;SDS011;57635;49.194;12.104;2023-06-19T13:46:56;3.25;;;3.15;;
8088;SDS011;57635;49.194;12.104;2023-06-19T13:49:24;3.92;;;3.63;;
8088;SDS011;57635;49.194;12.104;2023-06-19T13:51:52;3.85;;;3.65;;
8088;SDS011;57635;49.194;12.104;2023-06-19T13:54:19;3.63;;;3.40;;
8088;SDS011;57635;49.194;12.104;2023-06-19T13:56:47;3.45;;;3.25;;
8088;SDS011;57635;49.194;12.104;2023-06-19T13:59:15;2.85;;;2.75;;
8088;SDS011;57635;49.194;12.104;2023-06-19T14:01:44;3.17;;;2.97;;
8088;SDS011;57635;49.194;12.104;2023-06-19T14:04:11;4.15;;;3.90;;
8088;SDS011;57635;49.194;12.104;2023-06-19T14:06:39;6.13;;;5.80;;
8088;SDS011;57635;49.194;12.104;2023-06-19T14:09:08;3.35;;;3.15;;
8088;SDS011;57635;49.194;12.104;2023-06-19T14:11:36;3.67;;;3.47;;
8088;SDS011;57635;49.194;12.104;2023-06-19T14:14:03;3.60;;;3.35;;
8088;SDS011;57635;49.194;12.104;2023-06-19T14:16:31;3.85;;;3.55;;
8088;SDS011;57635;49.194;12.104;2023-06-19T14:19:00;11.35;;;3.83;;
8088;SDS011;57635;49.194;12.104;2023-06-19T14:21:28;19.02;;;5.10;;
8088;SDS011;57635;49.194;12.104;2023-06-19T14:23:55;3.35;;;3.15;;
8088;SDS011;57635;49.194;12.104;2023-06-19T14:26:23;3.95;;;3.55;;
8088;SDS011;57635;49.194;12.104;2023-06-19T14:28:51;5.75;;;3.70;;
8088;SDS011;57635;49.194;12.104;2023-06-19T14:31:23;4.07;;;3.47;;
8088;SDS011;57635;49.194;12.104;2023-06-19T14:33:50;4.72;;;4.43;;
8088;SDS011;57635;49.194;12.104;2023-06-19T14:36:19;3.72;;;3.58;;
8088;SDS011;57635;49.194;12.104;2023-06-19T14:38:47;4.82;;;4.30;;
8088;SDS011;57635;49.194;12.104;2023-06-19T14:41:14;4.18;;;3.90;;
8088;SDS011;57635;49.194;12.104;2023-06-19T14:43:42;7.45;;;4.40;;
8088;SDS011;57635;49.194;12.104;2023-06-19T14:46:10;4.43;;;3.97;;